Terminal Aerodrome Forecast
Issued by NWS

Home | Current Version | Previous Version | Text Only | Print | Product List | Glossary Off
Versions: 1 2 3 4 5 6 7 8 9 10 11 12 13

000
FTUS43 KTOP 230520
TAFFOE
TAF
KFOE 230520Z 2306/2406 16010KT P6SM FEW015 BKN150 WS012/20040KT
     FM231200 16011G20KT 6SM BR BKN008
     FM231400 17012G22KT P6SM BKN012
     FM231600 17013G23KT P6SM BKN025
     FM231800 18013G22KT P6SM SCT035=

USA.gov is the U.S. government's official web portal to all federal, state and local government web resources and services.